Time;durP1;ratioP1;P1;durP2;ratioP2;P2;SDS_P1;SDS_P2;PMS_P1;PMS_P2;Temp;Humidity;BMP_temperature;BMP_pressure;BME280_temperature;BME280_humidity;BME280_pressure;Samples;Min_cycle;Max_cycle;Signal;HPM_P1;HPM_P2
2024/02/13 00:01:00;;;;;;;2.50;1.60;;;;;;;5.31;86.75;100019.67;104918;1254;62181;-69
2024/02/13 00:03:40;;;;;;;1.80;1.70;;;;;;;5.30;86.69;100023.09;105053;1255;139765;-71
2024/02/13 00:06:08;;;;;;;2.30;1.50;;;;;;;5.27;86.66;100027.87;105030;1255;74648;-68
2024/02/13 00:08:36;;;;;;;1.90;1.50;;;;;;;5.24;86.69;100029.89;105016;1254;138916;-69
2024/02/13 00:11:06;;;;;;;3.70;2.10;;;;;;;5.22;86.62;100031.54;105088;1260;73116;-70
2024/02/13 00:13:36;;;;;;;1.90;1.10;;;;;;;5.21;86.64;100034.98;108580;1254;62152;-69
2024/02/13 00:16:03;;;;;;;1.50;1.00;;;;;;;5.20;86.54;100040.31;104817;1261;138709;-70
2024/02/13 00:18:33;;;;;;;2.10;0.90;;;;;;;5.18;86.62;100045.30;104924;1256;76602;-69
2024/02/13 00:21:00;;;;;;;1.80;1.10;;;;;;;5.16;86.56;100042.81;104707;1264;139298;-69
2024/02/13 00:23:27;;;;;;;1.00;0.90;;;;;;;5.16;86.48;100048.52;104735;1254;73005;-69
2024/02/13 00:25:55;;;;;;;1.20;1.10;;;;;;;5.13;86.47;100054.16;104927;1254;138883;-68
2024/02/13 00:28:23;;;;;;;1.40;1.10;;;;;;;5.10;86.43;100057.55;106395;1257;62047;-69
2024/02/13 00:30:50;;;;;;;1.10;1.00;;;;;;;5.10;86.47;100061.02;104860;1260;75297;-69
2024/02/13 00:33:17;;;;;;;1.30;1.10;;;;;;;5.08;86.54;100068.42;104810;1254;140075;-69
2024/02/13 00:35:45;;;;;;;1.70;1.00;;;;;;;5.08;86.46;100076.07;105120;1254;72908;-69
2024/02/13 00:38:15;;;;;;;1.00;0.90;;;;;;;5.08;86.50;100081.63;107795;1255;138919;-70
2024/02/13 00:40:41;;;;;;;1.40;0.90;;;;;;;5.07;86.50;100081.62;105172;1259;61957;-69
2024/02/13 00:43:08;;;;;;;1.20;0.80;;;;;;;5.05;86.36;100084.33;105019;1254;76119;-70
2024/02/13 00:45:35;;;;;;;0.80;0.80;;;;;;;5.04;86.26;100090.38;104998;1254;138869;-70
2024/02/13 00:48:02;;;;;;;0.70;0.70;;;;;;;5.02;86.25;100089.44;105107;1260;73303;-70
2024/02/13 00:50:30;;;;;;;1.00;0.80;;;;;;;5.00;86.24;100095.44;105102;1254;138107;-69
2024/02/13 00:52:59;;;;;;;0.90;0.90;;;;;;;4.98;86.15;100094.16;105041;1260;62079;-69
2024/02/13 00:55:27;;;;;;;1.50;0.80;;;;;;;4.97;85.94;100105.56;105160;1260;75273;-70
2024/02/13 00:57:54;;;;;;;0.80;0.60;;;;;;;4.92;85.87;100108.16;105449;1260;137724;-69
2024/02/13 01:00:21;;;;;;;1.30;1.00;;;;;;;4.87;85.93;100114.42;106429;1257;73827;-70
2024/02/13 01:02:47;;;;;;;1.30;1.00;;;;;;;4.85;85.99;100117.66;104865;1260;138840;-70
2024/02/13 01:05:15;;;;;;;1.50;1.20;;;;;;;4.83;85.98;100118.46;105019;1260;62053;-70
2024/02/13 01:07:42;;;;;;;1.30;1.10;;;;;;;4.83;86.04;100125.58;106908;1254;76653;-70
2024/02/13 01:10:10;;;;;;;1.10;1.00;;;;;;;4.81;85.96;100131.77;108826;1254;138539;-69
2024/02/13 01:12:39;;;;;;;1.30;1.00;;;;;;;4.83;86.06;100139.30;104776;1257;74257;-70
2024/02/13 01:15:07;;;;;;;1.50;1.00;;;;;;;4.82;86.02;100143.97;106553;1257;139076;-69
2024/02/13 01:17:34;;;;;;;1.00;0.60;;;;;;;4.81;85.92;100147.09;106503;1255;62080;-69
2024/02/13 01:20:01;;;;;;;1.10;0.80;;;;;;;4.79;85.84;100150.98;105045;1258;138916;-69
2024/02/13 01:22:28;;;;;;;7.00;0.80;;;;;;;4.74;85.56;100152.36;105153;1259;67302;-70
2024/02/13 01:24:56;;;;;;;0.80;0.80;;;;;;;4.71;85.60;100156.74;104803;1261;73679;-69
2024/02/13 01:27:23;;;;;;;2.90;1.00;;;;;;;4.68;85.57;100160.13;104752;1261;139281;-69
2024/02/13 01:29:50;;;;;;;1.60;0.90;;;;;;;4.66;85.44;100165.11;104999;1254;62110;-69
2024/02/13 01:32:17;;;;;;;1.30;1.00;;;;;;;4.65;85.54;100169.74;104827;1256;139141;-70
2024/02/13 01:34:45;;;;;;;1.80;1.00;;;;;;;4.64;85.38;100169.52;105048;1259;66817;-70
2024/02/13 01:37:15;;;;;;;3.30;0.80;;;;;;;4.61;85.35;100172.17;107549;1257;71779;-67
2024/02/13 01:39:42;;;;;;;3.40;0.90;;;;;;;4.60;85.33;100177.36;105116;1254;138500;-67
2024/02/13 01:42:11;;;;;;;1.70;1.00;;;;;;;4.59;85.33;100182.16;104967;1259;60609;-67
2024/02/13 01:44:38;;;;;;;1.40;1.10;;;;;;;4.56;85.26;100183.27;105874;1254;137949;-69
2024/02/13 01:47:05;;;;;;;1.80;1.10;;;;;;;4.54;85.21;100189.46;107367;1254;65793;-69
2024/02/13 01:49:34;;;;;;;1.50;1.10;;;;;;;4.53;85.19;100188.17;104466;1263;71685;-65
2024/02/13 01:52:01;;;;;;;1.10;1.00;;;;;;;4.49;85.19;100192.56;108231;1254;138542;-67
2024/02/13 01:54:29;;;;;;;1.10;1.00;;;;;;;4.44;84.85;100192.71;105089;1254;62050;-68
2024/02/13 01:56:55;;;;;;;1.30;1.10;;;;;;;4.40;84.90;100199.16;106653;1254;138451;-69
2024/02/13 01:59:23;;;;;;;0.90;0.70;;;;;;;4.40;84.94;100199.48;106519;1260;66433;-69
2024/02/13 02:01:49;;;;;;;1.60;0.90;;;;;;;4.40;85.09;100203.34;104650;1257;139141;-69
2024/02/13 02:04:18;;;;;;;0.90;0.80;;;;;;;4.40;85.02;100202.13;108726;1254;59864;-69
2024/02/13 02:06:45;;;;;;;1.70;0.80;;;;;;;4.39;84.91;100207.61;106750;1260;62104;-69
2024/02/13 02:09:11;;;;;;;1.40;0.80;;;;;;;4.36;84.63;100207.30;104715;1257;138884;-69
2024/02/13 02:11:38;;;;;;;1.20;0.80;;;;;;;4.32;84.43;100214.77;107060;1254;66864;-70
2024/02/13 02:14:08;;;;;;;1.10;0.90;;;;;;;4.27;84.51;100215.79;104743;1256;139283;-68
2024/02/13 02:16:35;;;;;;;1.00;0.80;;;;;;;4.26;84.64;100218.37;105676;1258;61293;-70
2024/02/13 02:19:02;;;;;;;1.40;1.00;;;;;;;4.27;84.64;100221.00;104878;1260;62009;-68
2024/02/13 02:21:29;;;;;;;0.80;0.80;;;;;;;4.30;84.84;100220.26;104919;1254;138255;-68
2024/02/13 02:23:56;;;;;;;1.10;0.70;;;;;;;4.33;84.93;100226.44;104956;1257;67594;-61
2024/02/13 02:26:25;;;;;;;1.10;0.80;;;;;;;4.32;84.86;100228.16;104963;1260;138113;-61
2024/02/13 02:28:51;;;;;;;0.70;0.70;;;;;;;4.28;84.77;100230.47;105041;1259;62166;-61
2024/02/13 02:31:18;;;;;;;0.80;0.80;;;;;;;4.27;84.71;100231.28;104837;1260;62047;-60
2024/02/13 02:33:46;;;;;;;0.90;0.70;;;;;;;4.23;84.64;100237.02;104378;1260;141144;-63
2024/02/13 02:36:12;;;;;;;2.50;0.80;;;;;;;4.21;84.52;100236.89;104933;1260;67332;-62
2024/02/13 02:38:39;;;;;;;0.70;0.70;;;;;;;4.17;84.44;100242.32;104785;1257;138629;-63
2024/02/13 02:41:06;;;;;;;0.70;0.70;;;;;;;4.15;84.41;100248.80;105043;1260;62001;-63
2024/02/13 02:43:37;;;;;;;1.10;0.70;;;;;;;4.15;84.32;100251.73;104964;1256;62061;-63
2024/02/13 02:46:04;;;;;;;0.60;0.60;;;;;;;4.14;84.33;100255.35;105608;1259;138867;-62
2024/02/13 02:48:31;;;;;;;0.80;0.70;;;;;;;4.14;84.39;100260.92;105824;1259;67321;-63
2024/02/13 02:50:58;;;;;;;0.70;0.70;;;;;;;4.13;84.30;100262.43;105026;1259;138530;-64
2024/02/13 02:53:25;;;;;;;0.90;0.70;;;;;;;4.14;84.41;100264.20;104802;1256;62177;-62
2024/02/13 02:55:53;;;;;;;0.70;0.60;;;;;;;4.13;84.39;100272.69;104789;1254;139432;-65
2024/02/13 02:58:20;;;;;;;0.70;0.60;;;;;;;4.13;84.29;100272.48;104805;1254;74659;-63
2024/02/13 03:00:48;;;;;;;0.50;0.50;;;;;;;4.14;84.32;100279.52;104844;1257;65449;-63
2024/02/13 03:03:16;;;;;;;0.70;0.70;;;;;;;4.14;84.41;100284.02;105806;1254;137969;-63
2024/02/13 03:05:43;;;;;;;0.70;0.70;;;;;;;4.14;84.36;100290.44;108728;1256;62166;-64
2024/02/13 03:08:12;;;;;;;0.90;0.70;;;;;;;4.14;84.43;100295.31;104767;1255;137991;-63
2024/02/13 03:10:39;;;;;;;3.20;0.80;;;;;;;4.14;84.25;100303.98;104731;1254;76000;-63
2024/02/13 03:13:05;;;;;;;0.60;0.60;;;;;;;4.14;84.30;100308.49;105085;1259;67334;-63
2024/02/13 03:15:32;;;;;;;0.50;0.50;;;;;;;4.15;84.44;100310.80;104727;1260;138456;-62
2024/02/13 03:17:59;;;;;;;0.70;0.70;;;;;;;4.16;84.31;100321.78;105010;1257;62044;-62
2024/02/13 03:20:26;;;;;;;0.70;0.70;;;;;;;4.17;84.31;100324.78;104720;1259;138958;-63
2024/02/13 03:22:53;;;;;;;0.80;0.80;;;;;;;4.17;84.26;100328.98;105077;1255;76043;-63
2024/02/13 03:25:19;;;;;;;1.00;0.70;;;;;;;4.18;84.20;100337.16;104928;1261;66908;-63
2024/02/13 03:27:46;;;;;;;1.00;0.90;;;;;;;4.18;84.19;100340.98;104799;1256;138842;-63
2024/02/13 03:30:14;;;;;;;0.50;0.50;;;;;;;4.19;84.24;100340.52;105026;1256;62103;-62
2024/02/13 03:32:43;;;;;;;0.70;0.70;;;;;;;4.20;84.43;100344.71;104690;1258;138461;-61
2024/02/13 03:35:10;;;;;;;1.20;0.80;;;;;;;4.21;84.29;100347.20;106252;1261;76136;-61
2024/02/13 03:37:37;;;;;;;1.20;1.00;;;;;;;4.23;84.23;100351.98;104988;1258;66199;-63
2024/02/13 03:40:06;;;;;;;1.60;0.60;;;;;;;4.25;84.22;100353.08;105009;1256;138483;-64
2024/02/13 03:42:33;;;;;;;0.80;0.80;;;;;;;4.25;84.19;100360.57;105895;1259;62006;-64
2024/02/13 03:45:00;;;;;;;1.00;0.90;;;;;;;4.24;84.19;100366.64;104745;1257;137989;-64
2024/02/13 03:47:27;;;;;;;0.90;0.80;;;;;;;4.23;84.05;100369.67;104793;1260;76103;-64
2024/02/13 03:50:07;;;;;;;0.80;0.80;;;;;;;4.20;83.88;100374.27;105052;1260;139715;-63
2024/02/13 03:53:01;;;;;;;0.80;0.80;;;;;;;4.18;83.98;100379.86;105716;1260;72511;-65
2024/02/13 03:55:39;;;;;;;1.00;0.90;;;;;;;4.19;84.12;100387.59;105947;1256;62158;-69
2024/02/13 03:58:08;;;;;;;0.90;0.80;;;;;;;4.17;83.77;100391.30;106501;1256;138565;-66
2024/02/13 04:00:40;;;;;;;1.20;0.90;;;;;;;4.15;83.80;100396.79;105680;1258;76009;-64
2024/02/13 04:03:15;;;;;;;1.10;1.00;;;;;;;4.15;83.89;100396.05;105905;1257;138754;-64
2024/02/13 04:05:53;;;;;;;1.20;1.10;;;;;;;4.16;83.85;100394.02;106208;1256;72423;-63
2024/02/13 04:08:33;;;;;;;1.00;0.90;;;;;;;4.17;83.98;100396.51;105789;1256;139084;-64
2024/02/13 04:11:20;;;;;;;0.90;0.90;;;;;;;4.18;83.84;100400.37;107203;1258;61961;-64
2024/02/13 04:14:03;;;;;;;1.10;1.00;;;;;;;4.21;83.99;100403.28;106208;1260;76018;-69
2024/02/13 04:16:43;;;;;;;1.30;1.20;;;;;;;4.24;83.90;100409.33;107029;1259;65008;-69
2024/02/13 04:19:31;;;;;;;1.20;1.10;;;;;;;4.25;83.86;100414.77;105473;1257;72809;-68
2024/02/13 04:22:00;;;;;;;1.40;1.20;;;;;;;4.25;83.91;100418.77;106575;1256;139434;-67
2024/02/13 04:24:29;;;;;;;2.00;1.60;;;;;;;4.26;83.78;100422.62;108086;1259;62085;-67
2024/02/13 04:26:56;;;;;;;1.70;1.50;;;;;;;4.28;83.85;100425.16;108862;1256;138018;-68
2024/02/13 04:29:23;;;;;;;4.40;1.50;;;;;;;4.31;83.90;100433.77;109015;1257;66266;-68
2024/02/13 04:31:50;;;;;;;2.10;1.70;;;;;;;4.32;83.95;100434.35;108943;1256;71660;-67
2024/02/13 04:34:30;;;;;;;2.10;1.90;;;;;;;4.34;83.97;100437.73;108199;1258;138617;-67
2024/02/13 04:37:29;;;;;;;2.20;2.00;;;;;;;4.34;83.95;100439.48;106637;1256;61940;-67
2024/02/13 04:40:06;;;;;;;2.30;2.10;;;;;;;4.35;83.89;100446.83;108819;1256;138443;-67
2024/02/13 04:42:33;;;;;;;2.10;1.90;;;;;;;4.36;83.94;100452.97;108923;1257;66419;-67
2024/02/13 04:45:02;;;;;;;2.40;2.20;;;;;;;4.37;84.00;100457.52;108750;1256;138913;-68
2024/02/13 04:47:46;;;;;;;2.60;2.00;;;;;;;4.40;84.05;100458.67;107343;1259;62163;-65
2024/02/13 04:50:32;;;;;;;3.00;2.30;;;;;;;4.42;83.99;100459.11;106400;1256;139698;-64
2024/02/13 04:53:21;;;;;;;3.30;2.60;;;;;;;4.45;84.15;100464.33;108272;1257;75678;-63
2024/02/13 04:55:48;;;;;;;4.30;2.80;;;;;;;4.49;84.19;100466.56;104903;1257;66020;-64
2024/02/13 04:58:18;;;;;;;4.30;3.20;;;;;;;4.52;84.30;100472.23;104847;1262;138585;-65
2024/02/13 05:00:51;;;;;;;6.00;3.00;;;;;;;4.53;84.27;100477.52;104775;1257;62044;-65
2024/02/13 05:03:25;;;;;;;3.50;3.00;;;;;;;4.54;84.31;100476.35;104806;1257;138714;-64
2024/02/13 05:08:38;;;;;;;4.30;3.40;;;;;;;4.57;84.51;100476.47;104720;1259;139274;-65
2024/02/13 05:11:05;;;;;;;5.10;3.40;;;;;;;4.59;84.52;100477.92;104865;1256;72082;-65
2024/02/13 05:13:32;;;;;;;4.90;3.50;;;;;;;4.61;84.53;100480.80;104902;1256;62548;-66
2024/02/13 05:16:00;;;;;;;3.90;3.50;;;;;;;4.62;84.61;100483.82;105200;1259;137991;-65
2024/02/13 05:18:30;;;;;;;6.10;4.00;;;;;;;4.64;84.69;100486.01;107028;1255;74608;-64
2024/02/13 05:20:58;;;;;;;5.70;4.10;;;;;;;4.65;84.74;100488.48;105704;1256;138391;-64
2024/02/13 05:23:24;;;;;;;4.90;4.10;;;;;;;4.64;84.61;100490.52;105046;1256;73249;-68
2024/02/13 05:25:51;;;;;;;8.30;3.80;;;;;;;4.64;84.65;100499.18;105039;1256;62229;-66
2024/02/13 05:28:18;;;;;;;5.90;3.30;;;;;;;4.63;84.72;100501.43;108684;1255;139109;-64
2024/02/13 05:30:45;;;;;;;4.10;3.50;;;;;;;4.64;84.80;100508.77;105205;1259;75447;-66
2024/02/13 05:33:12;;;;;;;6.30;4.30;;;;;;;4.66;84.85;100510.26;104923;1261;138700;-66
2024/02/13 05:35:41;;;;;;;4.40;3.50;;;;;;;4.70;84.89;100511.80;104952;1257;74287;-66
2024/02/13 05:38:09;;;;;;;3.30;3.00;;;;;;;4.71;84.87;100518.80;104953;1262;62169;-65
2024/02/13 05:40:38;;;;;;;3.60;3.10;;;;;;;4.71;84.88;100523.31;104729;1260;138816;-64
2024/02/13 05:43:07;;;;;;;5.00;3.10;;;;;;;4.71;84.80;100532.89;108473;1256;75343;-65
2024/02/13 05:45:35;;;;;;;4.30;3.20;;;;;;;4.73;84.98;100535.60;104971;1259;139040;-66
2024/02/13 05:48:02;;;;;;;4.90;3.00;;;;;;;4.76;85.01;100540.92;105368;1256;73745;-69
2024/02/13 05:50:29;;;;;;;3.70;2.90;;;;;;;4.77;85.04;100545.86;104887;1258;140420;-67
2024/02/13 05:52:56;;;;;;;5.10;3.20;;;;;;;4.80;84.96;100554.30;104901;1256;62156;-68
2024/02/13 05:55:23;;;;;;;4.90;2.80;;;;;;;4.81;85.02;100557.51;105016;1255;75923;-68
2024/02/13 05:57:51;;;;;;;2.70;2.30;;;;;;;4.84;84.99;100560.23;108758;1254;139241;-67
2024/02/13 06:00:18;;;;;;;5.00;2.50;;;;;;;4.84;84.88;100562.16;109007;1254;72254;-66
2024/02/13 06:02:45;;;;;;;3.90;2.60;;;;;;;4.85;84.83;100565.52;105073;1254;138695;-67
2024/02/13 06:05:14;;;;;;;3.60;2.50;;;;;;;4.86;84.68;100572.30;104912;1256;62182;-67
2024/02/13 06:07:41;;;;;;;3.50;2.40;;;;;;;4.86;84.76;100576.83;105427;1254;75789;-67
2024/02/13 06:10:10;;;;;;;4.60;2.80;;;;;;;4.86;84.74;100574.79;104843;1260;138153;-65
2024/02/13 06:12:38;;;;;;;4.00;2.50;;;;;;;4.86;84.69;100580.84;107682;1256;71778;-66
2024/02/13 06:15:06;;;;;;;3.60;2.80;;;;;;;4.86;84.67;100580.30;105027;1259;137779;-66
2024/02/13 06:17:33;;;;;;;3.10;2.50;;;;;;;4.83;84.60;100582.83;109002;1259;60774;-66
2024/02/13 06:20:04;;;;;;;3.90;2.40;;;;;;;4.83;84.57;100585.21;106479;1254;75262;-65
2024/02/13 06:22:32;;;;;;;5.20;2.30;;;;;;;4.80;84.53;100583.73;108209;1256;139450;-66
2024/02/13 06:25:04;;;;;;;2.50;2.10;;;;;;;4.81;84.62;100590.00;106934;1256;72776;-68
2024/02/13 06:27:32;;;;;;;4.60;2.30;;;;;;;4.82;84.66;100593.52;106284;1256;138668;-66
2024/02/13 06:29:59;;;;;;;2.50;2.10;;;;;;;4.84;84.68;100596.20;106425;1260;60050;-68
2024/02/13 06:32:26;;;;;;;2.90;2.20;;;;;;;4.87;84.80;100601.73;104833;1257;139213;-67
2024/02/13 06:34:53;;;;;;;3.40;2.60;;;;;;;4.90;84.79;100608.14;105432;1254;67093;-67
2024/02/13 06:37:21;;;;;;;3.30;2.50;;;;;;;4.93;84.83;100615.39;104829;1259;72704;-67
2024/02/13 06:39:48;;;;;;;4.40;3.10;;;;;;;4.94;84.72;100619.81;104568;1258;138716;-68
2024/02/13 06:42:15;;;;;;;5.10;2.70;;;;;;;4.95;84.84;100621.95;104849;1257;62050;-66
2024/02/13 06:44:45;;;;;;;3.10;2.50;;;;;;;4.97;84.77;100625.35;104529;1260;138909;-66
2024/02/13 06:47:12;;;;;;;5.70;2.50;;;;;;;5.00;84.91;100634.86;104916;1259;64199;-67
2024/02/13 06:49:39;;;;;;;4.30;2.60;;;;;;;5.02;84.80;100638.97;105063;1259;73463;-68
2024/02/13 06:52:06;;;;;;;3.50;1.80;;;;;;;5.04;84.81;100638.54;108744;1256;138945;-68
2024/02/13 06:54:33;;;;;;;6.80;4.60;;;;;;;5.05;84.70;100639.64;108365;1254;60584;-68
2024/02/13 06:57:00;;;;;;;5.30;3.00;;;;;;;5.08;84.51;100641.63;107436;1255;139016;-67
2024/02/13 06:59:29;;;;;;;4.40;2.50;;;;;;;5.09;84.35;100643.95;104984;1259;65373;-66
2024/02/13 07:01:56;;;;;;;4.00;2.50;;;;;;;5.08;84.15;100644.60;105865;1257;73874;-67
2024/02/13 07:04:23;;;;;;;6.00;2.40;;;;;;;5.09;84.06;100646.73;104766;1257;137934;-67
2024/02/13 07:06:55;;;;;;;2.40;2.20;;;;;;;5.09;84.03;100651.98;104853;1257;62500;-66
2024/02/13 07:09:25;;;;;;;3.70;2.10;;;;;;;5.10;83.91;100654.77;106339;1256;139164;-67
2024/02/13 07:11:51;;;;;;;4.70;2.80;;;;;;;5.11;83.85;100664.06;104927;1255;67378;-67
2024/02/13 07:14:18;;;;;;;4.80;2.40;;;;;;;5.17;83.97;100668.52;105037;1259;138531;-66
2024/02/13 07:16:45;;;;;;;4.90;3.00;;;;;;;5.26;84.04;100673.96;104945;1256;62168;-63
2024/02/13 07:19:12;;;;;;;5.50;4.20;;;;;;;5.34;83.88;100675.35;105134;1258;62054;-64
2024/02/13 07:21:39;;;;;;;5.30;3.40;;;;;;;5.38;83.74;100681.97;104921;1256;138913;-63
2024/02/13 07:24:06;;;;;;;7.20;4.50;;;;;;;5.43;83.59;100683.08;104836;1255;66439;-62
2024/02/13 07:26:33;;;;;;;4.70;2.70;;;;;;;5.46;83.35;100690.66;107984;1256;139786;-67
2024/02/13 07:28:59;;;;;;;5.80;2.50;;;;;;;5.46;83.07;100694.52;104961;1256;62150;-68
2024/02/13 07:31:30;;;;;;;3.50;2.10;;;;;;;5.46;82.92;100695.55;105027;1259;62054;-68
2024/02/13 07:33:58;;;;;;;3.80;2.60;;;;;;;5.46;82.58;100696.58;104865;1254;138039;-67
2024/02/13 07:36:25;;;;;;;4.80;2.20;;;;;;;5.42;82.19;100697.30;105743;1256;66634;-67
2024/02/13 07:38:51;;;;;;;4.70;2.40;;;;;;;5.40;82.03;100699.64;104721;1258;138039;-68
2024/02/13 07:41:18;;;;;;;3.20;1.90;;;;;;;5.39;82.09;100698.04;104981;1259;62053;-68
2024/02/13 07:43:45;;;;;;;2.90;2.00;;;;;;;5.40;82.12;100694.61;104918;1256;61928;-67
2024/02/13 07:46:11;;;;;;;2.80;2.00;;;;;;;5.44;82.04;100704.70;104898;1254;138270;-69
2024/02/13 07:48:39;;;;;;;4.20;2.40;;;;;;;5.47;81.88;100705.66;104944;1254;65512;-66
2024/02/13 07:51:06;;;;;;;6.60;3.00;;;;;;;5.52;81.65;100711.30;104961;1259;137764;-67
2024/02/13 07:53:33;;;;;;;3.50;2.30;;;;;;;5.57;81.65;100712.05;104957;1257;62178;-67
2024/02/13 07:56:00;;;;;;;4.00;2.40;;;;;;;5.63;81.71;100719.45;105145;1259;62051;-66
2024/02/13 07:58:27;;;;;;;5.50;2.60;;;;;;;5.69;81.60;100721.45;104975;1257;137649;-67
2024/02/13 08:00:54;;;;;;;6.60;2.60;;;;;;;5.73;81.47;100724.24;104903;1261;67399;-67
2024/02/13 08:03:21;;;;;;;4.20;2.50;;;;;;;5.75;81.38;100730.98;104887;1255;138993;-68
2024/02/13 08:05:48;;;;;;;7.10;2.80;;;;;;;5.75;81.14;100738.10;108903;1256;59812;-65
2024/02/13 08:08:14;;;;;;;4.80;2.90;;;;;;;5.78;80.99;100733.52;104922;1258;61976;-66
2024/02/13 08:10:42;;;;;;;5.10;3.30;;;;;;;5.85;81.02;100744.96;104791;1259;138476;-67
2024/02/13 08:13:09;;;;;;;4.50;2.60;;;;;;;5.87;80.75;100744.36;104916;1261;65630;-67
2024/02/13 08:15:37;;;;;;;3.60;2.10;;;;;;;5.92;80.63;100750.51;104888;1256;138185;-66
2024/02/13 08:18:04;;;;;;;6.10;2.60;;;;;;;5.94;80.23;100757.55;109031;1254;59886;-67
2024/02/13 08:20:32;;;;;;;7.20;4.20;;;;;;;5.96;80.17;100760.64;108970;1255;139340;-67
2024/02/13 08:22:59;;;;;;;6.60;2.90;;;;;;;6.02;80.23;100763.35;108868;1254;75499;-68
2024/02/13 08:25:27;;;;;;;9.50;5.10;;;;;;;6.09;80.10;100765.70;108958;1254;66660;-66
2024/02/13 08:27:53;;;;;;;8.40;3.00;;;;;;;6.15;80.17;100766.33;108932;1256;138583;-66
2024/02/13 08:30:20;;;;;;;11.30;3.60;;;;;;;6.20;79.96;100762.73;109090;1255;59892;-67
2024/02/13 08:32:47;;;;;;;6.20;3.00;;;;;;;6.23;79.67;100768.78;108963;1254;139633;-66
2024/02/13 08:35:14;;;;;;;13.00;6.20;;;;;;;6.27;79.68;100771.72;108202;1257;74549;-67
2024/02/13 08:37:40;;;;;;;8.50;3.50;;;;;;;6.31;79.45;100767.35;104692;1259;65771;-67
2024/02/13 08:40:08;;;;;;;8.30;4.10;;;;;;;6.32;79.42;100767.42;104487;1257;138802;-68
2024/02/13 08:42:34;;;;;;;9.60;5.20;;;;;;;6.32;79.50;100765.83;104557;1255;62068;-63
2024/02/13 08:45:01;;;;;;;20.80;12.30;;;;;;;6.37;79.38;100775.49;104744;1257;138129;-63
2024/02/13 08:47:28;;;;;;;27.50;17.30;;;;;;;6.43;79.18;100781.30;104845;1259;73796;-63
2024/02/13 08:49:55;;;;;;;26.60;15.80;;;;;;;6.49;79.20;100785.02;104997;1259;65545;-63
2024/02/13 08:52:23;;;;;;;17.60;10.30;;;;;;;6.59;79.11;100789.12;104901;1256;138789;-64
2024/02/13 08:54:50;;;;;;;13.30;8.20;;;;;;;6.69;78.98;100794.94;105009;1256;62187;-64
2024/02/13 08:57:16;;;;;;;10.60;7.30;;;;;;;6.80;79.02;100803.06;104998;1259;138127;-63
2024/02/13 08:59:45;;;;;;;7.90;5.20;;;;;;;6.87;78.43;100801.95;105040;1256;75145;-63
2024/02/13 09:02:12;;;;;;;10.90;5.60;;;;;;;6.92;78.56;100809.10;105201;1259;66935;-64
2024/02/13 09:04:39;;;;;;;20.50;10.70;;;;;;;6.98;78.57;100806.23;107371;1255;138304;-64
2024/02/13 09:07:06;;;;;;;11.80;6.40;;;;;;;7.05;78.04;100812.78;104977;1257;62158;-64
2024/02/13 09:09:33;;;;;;;12.00;6.60;;;;;;;7.05;77.71;100812.91;104947;1256;138469;-63
2024/02/13 09:12:04;;;;;;;10.10;5.50;;;;;;;7.10;77.59;100817.16;109147;1255;75942;-64
2024/02/13 09:14:33;;;;;;;11.70;4.60;;;;;;;7.14;77.50;100820.83;105139;1259;137996;-63
2024/02/13 09:17:00;;;;;;;12.40;6.80;;;;;;;7.22;77.62;100824.29;105033;1259;71186;-63
2024/02/13 09:19:27;;;;;;;12.90;6.30;;;;;;;7.21;77.11;100830.00;105947;1259;62102;-63
2024/02/13 09:21:54;;;;;;;8.20;3.80;;;;;;;7.13;76.86;100834.21;104903;1256;137859;-64
2024/02/13 09:24:23;;;;;;;11.20;4.30;;;;;;;7.08;76.86;100842.05;104705;1256;386535;-64
2024/02/13 09:26:51;;;;;;;6.30;3.50;;;;;;;7.02;76.53;100840.42;105420;1259;138872;-63
2024/02/13 09:29:18;;;;;;;15.80;4.50;;;;;;;6.98;76.64;100841.82;106672;1256;73257;-64
2024/02/13 09:31:45;;;;;;;17.60;5.10;;;;;;;6.96;76.70;100848.18;105009;1256;62138;-63
2024/02/13 09:34:13;;;;;;;9.30;3.80;;;;;;;6.95;76.72;100849.88;104895;1256;138840;-62
2024/02/13 09:36:40;;;;;;;10.10;3.50;;;;;;;6.93;76.54;100860.25;104914;1259;73429;-63
2024/02/13 09:39:08;;;;;;;9.40;3.30;;;;;;;6.82;75.73;100868.02;104790;1255;138765;-64
2024/02/13 09:41:36;;;;;;;10.30;3.20;;;;;;;6.70;75.51;100879.19;104990;1259;70941;-64
2024/02/13 09:44:03;;;;;;;8.00;3.20;;;;;;;6.63;75.42;100876.47;109127;1256;59764;-63
2024/02/13 09:46:30;;;;;;;9.20;3.80;;;;;;;6.66;75.35;100878.66;108801;1256;139133;-65
2024/02/13 09:48:57;;;;;;;8.80;3.00;;;;;;;6.71;75.01;100884.11;104894;1257;74531;-64
2024/02/13 09:51:24;;;;;;;9.00;2.50;;;;;;;6.75;74.80;100877.31;104786;1257;137981;-62
2024/02/13 09:53:51;;;;;;;7.50;2.70;;;;;;;6.70;74.17;100880.23;104870;1256;73682;-63
2024/02/13 09:56:18;;;;;;;8.70;3.10;;;;;;;6.62;74.19;100887.23;104825;1256;138455;-64
2024/02/13 09:58:46;;;;;;;8.40;2.30;;;;;;;6.54;74.07;100887.74;108951;1255;60452;-62
2024/02/13 10:01:13;;;;;;;7.80;2.50;;;;;;;6.52;74.36;100889.74;106547;1259;73866;-62
2024/02/13 10:03:41;;;;;;;6.40;2.10;;;;;;;6.56;74.23;100898.32;104913;1255;138029;-61
2024/02/13 10:06:09;;;;;;;9.30;2.30;;;;;;;6.56;73.88;100900.76;105037;1256;72667;-63
2024/02/13 10:08:39;;;;;;;8.40;2.90;;;;;;;6.49;73.59;100896.41;104939;1256;138607;-64
2024/02/13 10:11:15;;;;;;;8.10;2.80;;;;;;;6.41;73.79;100899.39;105276;1259;61587;-64
2024/02/13 10:13:42;;;;;;;6.40;2.70;;;;;;;6.48;74.14;100902.66;105214;1257;75046;-63
2024/02/13 10:16:19;;;;;;;10.10;3.20;;;;;;;6.63;74.03;100906.12;104921;1257;137833;-63
2024/02/13 10:19:02;;;;;;;6.00;2.50;;;;;;;6.72;73.87;100907.38;105541;1256;72963;-63
2024/02/13 10:21:32;;;;;;;9.00;2.80;;;;;;;6.78;73.58;100911.64;104848;1259;138613;-63
2024/02/13 10:24:12;;;;;;;8.00;3.50;;;;;;;6.79;73.32;100913.40;106475;1259;61938;-63
2024/02/13 10:26:39;;;;;;;7.70;3.00;;;;;;;6.79;73.17;100913.09;105306;1259;138140;-63
2024/02/13 10:29:07;;;;;;;10.70;3.00;;;;;;;6.81;73.54;100914.04;105014;1256;66568;-63
2024/02/13 10:31:37;;;;;;;6.60;2.60;;;;;;;6.82;73.26;100919.48;105080;1259;72125;-64
2024/02/13 10:34:11;;;;;;;6.00;2.30;;;;;;;6.79;73.40;100917.41;104959;1255;137984;-64
2024/02/13 10:36:41;;;;;;;5.80;2.40;;;;;;;6.80;73.51;100929.16;104931;1259;62312;-64
2024/02/13 10:39:08;;;;;;;7.80;3.00;;;;;;;6.82;73.81;100930.27;106775;1256;137887;-64
2024/02/13 10:41:39;;;;;;;5.80;2.50;;;;;;;6.87;74.08;100935.04;104875;1255;66643;-63
2024/02/13 10:44:07;;;;;;;7.30;2.50;;;;;;;6.95;74.31;100941.67;104979;1259;73458;-62
2024/02/13 10:46:38;;;;;;;7.10;2.60;;;;;;;7.02;74.22;100946.64;106387;1260;137632;-63
2024/02/13 10:49:05;;;;;;;5.30;2.50;;;;;;;7.00;73.94;100955.09;109115;1256;60901;-63
2024/02/13 10:51:33;;;;;;;8.30;2.40;;;;;;;6.86;73.99;100954.89;109011;1256;139217;-63
2024/02/13 10:54:04;;;;;;;5.40;2.30;;;;;;;6.76;73.98;100957.23;108949;1256;67100;-63
2024/02/13 10:56:34;;;;;;;5.70;2.40;;;;;;;6.62;73.84;100956.98;108948;1255;138606;-63
2024/02/13 10:59:02;;;;;;;7.20;2.20;;;;;;;6.51;73.86;100956.14;105393;1256;62397;-62
2024/02/13 11:01:31;;;;;;;4.20;1.70;;;;;;;6.47;74.12;100955.77;105117;1259;62027;-62
2024/02/13 11:03:57;;;;;;;5.20;2.20;;;;;;;6.43;74.22;100955.26;105299;1259;138162;-63
2024/02/13 11:06:24;;;;;;;5.30;2.10;;;;;;;6.38;74.12;100954.88;104995;1259;67094;-63
2024/02/13 11:08:51;;;;;;;4.70;1.80;;;;;;;6.36;74.27;100954.60;104889;1257;138672;-63
2024/02/13 11:11:21;;;;;;;4.60;1.70;;;;;;;6.34;74.15;100956.08;104991;1255;62171;-62
2024/02/13 11:13:48;;;;;;;6.00;2.00;;;;;;;6.32;74.10;100951.95;109101;1256;60117;-63
2024/02/13 11:16:16;;;;;;;6.00;2.10;;;;;;;6.29;74.12;100957.21;106310;1259;138225;-63
2024/02/13 11:18:47;;;;;;;7.30;2.40;;;;;;;6.30;74.33;100958.52;104926;1260;67235;-64
2024/02/13 11:21:41;;;;;;;4.50;2.30;;;;;;;6.33;74.27;100960.56;105405;1259;138896;-63
2024/02/13 11:24:12;;;;;;;5.60;2.10;;;;;;;6.33;73.95;100963.89;105151;1258;62312;-64
2024/02/13 11:26:39;;;;;;;6.10;2.20;;;;;;;6.36;74.12;100966.60;105163;1257;138847;-63
2024/02/13 11:29:20;;;;;;;5.50;2.20;;;;;;;6.40;74.02;100974.48;106631;1257;75723;-60
2024/02/13 11:31:59;;;;;;;12.70;3.30;;;;;;;6.40;73.96;100974.98;105113;1258;66701;-63